Terminal Aerodrome Forecast
Issued by NWS

Home | Current Version | Previous Version | Text Only | Print | Product List | Glossary On
Versions: 1 2 3 4 5 6 7 8 9 10 11 12 13 14 15 16 17 18 19 20 21
000
FTUS41 KBOX 061936 AAA
TAFFMH
TAF AMD
KFMH 061936Z 0620/0718 06011G18KT P6SM SCT015 BKN040
     FM062200 08009KT P6SM OVC015
     FM070300 07007KT 1/2SM FG OVC003
     FM071500 08007KT P6SM BKN008=

USA.gov is the U.S. government's official web portal to all federal, state and local government web resources and services.